Startpagina
METAR-TAF:

METAR-TAF

Vliegvelden :

Julius Nyerere International Airport

Dar es Salaam, Tanzania

breedte: 06-52S, lengte: 039-12E, hoogte: 55 m

Actueel weer

Dit bericht is 1 uur en het 14 minuten geleden gemaakt, om 08:00 UTC
Wind 5 kt uit het zuiden
Temperatuur 29°C
Vochtigheid 66%
Druk 1017 hPa
Zicht 10 km of meer
Verspreide wolken op 1900 ft
Gebroken wolken op 2100 ft

METAR: HTDA 190800Z 19005KT 9999 SCT019 BKN021 29/22 Q1017 NOSIG

Tijdstip: 12:14 (09:14 UTC)

Verwachting

Dit bericht is 4 uur en het 14 minuten geleden gemaakt, om 05:00 UTC
Verwachting geldig van 19 om 06 UTC tot 20 om 12 UTC
Wind kt uit het noorden
Zicht 10 km of meer
Weinig wolken op 1300 ft
Kans 30% :
Tijdelijke
van 19 om 06 UTC tot 19 om 10 UTC
Wind 10 kt uit het oostzuidoosten
Gebroken wolken op 2200 ft
regen
Wijzigt naar
van 19 om 15 UTC tot 19 om 18 UTC
Verspreide wolken op 1800 ft

TAF: HTDA 190500Z 1906/2012 00000KT 9999 FEW013 PROB30 TEMPO 1906/1910 12010KT RA BKN022 BECMG 1915/1918 SCT018

Waarnemingen en weersverwachtingen van meer dan 4000 vliegvelden (METAR en TAF).

De beschikbare stations zijn de gele en rode punten op de kaart.

Ga met uw muis naar het station om de naam te zien.

Klik dan om waarnemingen en weersverwachtingen te zien.

kaart wijzigen: klik op de groene knoppen met een zwart kruis om in te zoomen, op de groene knop met een streepje om uit te zoomen of op de groene pijlen voor aangrenzende kaarten.


METAR-TAF: